sensor_id;sensor_type;location;lat;lon;timestamp;P1;P2;P0
55754;PMS5003;41674;52.290;-1.474;2022-09-20T00:01:04;11;10;
55754;PMS5003;41674;52.290;-1.474;2022-09-20T00:03:29;13;12;
55754;PMS5003;41674;52.290;-1.474;2022-09-20T00:05:59;14;14;
55754;PMS5003;41674;52.290;-1.474;2022-09-20T00:08:28;10;10;
55754;PMS5003;41674;52.290;-1.474;2022-09-20T00:10:58;13;12;
55754;PMS5003;41674;52.290;-1.474;2022-09-20T00:13:29;11;11;
55754;PMS5003;41674;52.290;-1.474;2022-09-20T00:15:57;9;9;
55754;PMS5003;41674;52.290;-1.474;2022-09-20T00:18:26;11;11;
55754;PMS5003;41674;52.290;-1.474;2022-09-20T00:20:56;14;13;
55754;PMS5003;41674;52.290;-1.474;2022-09-20T00:23:26;13;11;
55754;PMS5003;41674;52.290;-1.474;2022-09-20T00:25:55;16;15;
55754;PMS5003;41674;52.290;-1.474;2022-09-20T00:28:25;11;11;
55754;PMS5003;41674;52.290;-1.474;2022-09-20T00:30:54;12;10;
55754;PMS5003;41674;52.290;-1.474;2022-09-20T00:33:24;14;14;
55754;PMS5003;41674;52.290;-1.474;2022-09-20T00:35:53;14;14;
55754;PMS5003;41674;52.290;-1.474;2022-09-20T00:38:23;13;11;
55754;PMS5003;41674;52.290;-1.474;2022-09-20T00:40:53;13;12;
55754;PMS5003;41674;52.290;-1.474;2022-09-20T00:45:51;17;16;
55754;PMS5003;41674;52.290;-1.474;2022-09-20T00:48:22;14;13;
55754;PMS5003;41674;52.290;-1.474;2022-09-20T00:50:51;12;11;
55754;PMS5003;41674;52.290;-1.474;2022-09-20T00:53:21;15;14;
55754;PMS5003;41674;52.290;-1.474;2022-09-20T00:55:50;14;14;
55754;PMS5003;41674;52.290;-1.474;2022-09-20T00:58:19;12;10;
55754;PMS5003;41674;52.290;-1.474;2022-09-20T01:00:48;18;16;
55754;PMS5003;41674;52.290;-1.474;2022-09-20T01:03:18;15;14;
55754;PMS5003;41674;52.290;-1.474;2022-09-20T01:05:53;14;13;
55754;PMS5003;41674;52.290;-1.474;2022-09-20T01:08:17;11;11;
55754;PMS5003;41674;52.290;-1.474;2022-09-20T01:10:52;12;11;
55754;PMS5003;41674;52.290;-1.474;2022-09-20T01:13:16;13;12;
55754;PMS5003;41674;52.290;-1.474;2022-09-20T01:15:45;15;12;
55754;PMS5003;41674;52.290;-1.474;2022-09-20T01:18:14;13;13;
55754;PMS5003;41674;52.290;-1.474;2022-09-20T01:20:44;12;11;
55754;PMS5003;41674;52.290;-1.474;2022-09-20T01:23:19;13;11;
55754;PMS5003;41674;52.290;-1.474;2022-09-20T01:25:48;16;14;
55754;PMS5003;41674;52.290;-1.474;2022-09-20T01:28:13;11;10;
55754;PMS5003;41674;52.290;-1.474;2022-09-20T01:30:44;10;9;
55754;PMS5003;41674;52.290;-1.474;2022-09-20T01:33:14;9;9;
55754;PMS5003;41674;52.290;-1.474;2022-09-20T01:35:43;13;11;
55754;PMS5003;41674;52.290;-1.474;2022-09-20T01:38:15;13;13;
55754;PMS5003;41674;52.290;-1.474;2022-09-20T01:40:43;10;10;
55754;PMS5003;41674;52.290;-1.474;2022-09-20T01:43:14;13;10;
55754;PMS5003;41674;52.290;-1.474;2022-09-20T01:45:40;11;11;
55754;PMS5003;41674;52.290;-1.474;2022-09-20T01:48:11;10;10;
55754;PMS5003;41674;52.290;-1.474;2022-09-20T01:50:41;11;11;
55754;PMS5003;41674;52.290;-1.474;2022-09-20T01:55:47;12;11;
55754;PMS5003;41674;52.290;-1.474;2022-09-20T02:00:38;12;10;
55754;PMS5003;41674;52.290;-1.474;2022-09-20T02:05:42;11;10;
55754;PMS5003;41674;52.290;-1.474;2022-09-20T02:08:07;8;8;
55754;PMS5003;41674;52.290;-1.474;2022-09-20T02:10:44;10;9;
55754;PMS5003;41674;52.290;-1.474;2022-09-20T02:13:05;10;10;
55754;PMS5003;41674;52.290;-1.474;2022-09-20T02:15:39;10;10;
55754;PMS5003;41674;52.290;-1.474;2022-09-20T02:18:07;10;10;
55754;PMS5003;41674;52.290;-1.474;2022-09-20T02:20:36;10;10;
55754;PMS5003;41674;52.290;-1.474;2022-09-20T02:23:07;10;9;
55754;PMS5003;41674;52.290;-1.474;2022-09-20T02:25:39;10;9;
55754;PMS5003;41674;52.290;-1.474;2022-09-20T02:28:04;13;12;
55754;PMS5003;41674;52.290;-1.474;2022-09-20T02:30:34;10;9;
55754;PMS5003;41674;52.290;-1.474;2022-09-20T02:33:07;11;9;
55754;PMS5003;41674;52.290;-1.474;2022-09-20T02:35:34;10;10;
55754;PMS5003;41674;52.290;-1.474;2022-09-20T02:38:05;11;10;
55754;PMS5003;41674;52.290;-1.474;2022-09-20T02:40:39;14;11;
55754;PMS5003;41674;52.290;-1.474;2022-09-20T02:43:02;12;11;
55754;PMS5003;41674;52.290;-1.474;2022-09-20T02:45:32;12;12;
55754;PMS5003;41674;52.290;-1.474;2022-09-20T02:48:00;10;8;
55754;PMS5003;41674;52.290;-1.474;2022-09-20T02:50:31;11;11;
55754;PMS5003;41674;52.290;-1.474;2022-09-20T02:53:04;8;8;
55754;PMS5003;41674;52.290;-1.474;2022-09-20T02:55:31;8;7;
55754;PMS5003;41674;52.290;-1.474;2022-09-20T02:57:59;11;8;
55754;PMS5003;41674;52.290;-1.474;2022-09-20T03:00:28;13;11;
55754;PMS5003;41674;52.290;-1.474;2022-09-20T03:03:00;10;8;
55754;PMS5003;41674;52.290;-1.474;2022-09-20T03:05:28;11;10;
55754;PMS5003;41674;52.290;-1.474;2022-09-20T03:08:01;9;9;
55754;PMS5003;41674;52.290;-1.474;2022-09-20T03:10:26;9;7;
55754;PMS5003;41674;52.290;-1.474;2022-09-20T03:12:59;9;9;
55754;PMS5003;41674;52.290;-1.474;2022-09-20T03:15:28;10;7;
55754;PMS5003;41674;52.290;-1.474;2022-09-20T03:17:57;9;9;
55754;PMS5003;41674;52.290;-1.474;2022-09-20T03:20:28;8;8;
55754;PMS5003;41674;52.290;-1.474;2022-09-20T03:22:55;11;10;
55754;PMS5003;41674;52.290;-1.474;2022-09-20T03:25:29;13;9;
55754;PMS5003;41674;52.290;-1.474;2022-09-20T03:27:54;10;10;
55754;PMS5003;41674;52.290;-1.474;2022-09-20T03:30:26;16;12;
55754;PMS5003;41674;52.290;-1.474;2022-09-20T03:32:54;11;11;
55754;PMS5003;41674;52.290;-1.474;2022-09-20T03:35:26;11;11;
55754;PMS5003;41674;52.290;-1.474;2022-09-20T03:37:56;13;10;
55754;PMS5003;41674;52.290;-1.474;2022-09-20T03:40:28;10;10;
55754;PMS5003;41674;52.290;-1.474;2022-09-20T03:42:51;14;12;
55754;PMS5003;41674;52.290;-1.474;2022-09-20T03:45:31;16;14;
55754;PMS5003;41674;52.290;-1.474;2022-09-20T03:47:56;11;11;
55754;PMS5003;41674;52.290;-1.474;2022-09-20T03:50:22;14;12;
55754;PMS5003;41674;52.290;-1.474;2022-09-20T03:52:53;14;11;
55754;PMS5003;41674;52.290;-1.474;2022-09-20T03:55:26;10;10;
55754;PMS5003;41674;52.290;-1.474;2022-09-20T03:57:50;11;10;
55754;PMS5003;41674;52.290;-1.474;2022-09-20T04:00:20;10;10;
55754;PMS5003;41674;52.290;-1.474;2022-09-20T04:02:54;13;10;
55754;PMS5003;41674;52.290;-1.474;2022-09-20T04:05:17;10;9;
55754;PMS5003;41674;52.290;-1.474;2022-09-20T04:07:49;15;12;
55754;PMS5003;41674;52.290;-1.474;2022-09-20T04:10:21;13;12;
55754;PMS5003;41674;52.290;-1.474;2022-09-20T04:12:49;13;12;
55754;PMS5003;41674;52.290;-1.474;2022-09-20T04:15:19;13;12;
55754;PMS5003;41674;52.290;-1.474;2022-09-20T04:17:46;14;12;
55754;PMS5003;41674;52.290;-1.474;2022-09-20T04:20:16;18;13;
55754;PMS5003;41674;52.290;-1.474;2022-09-20T04:22:44;15;13;
55754;PMS5003;41674;52.290;-1.474;2022-09-20T04:25:14;12;12;
55754;PMS5003;41674;52.290;-1.474;2022-09-20T04:27:43;13;11;
55754;PMS5003;41674;52.290;-1.474;2022-09-20T04:30:15;10;10;
55754;PMS5003;41674;52.290;-1.474;2022-09-20T04:32:43;13;13;
55754;PMS5003;41674;52.290;-1.474;2022-09-20T04:35:13;14;12;
55754;PMS5003;41674;52.290;-1.474;2022-09-20T04:37:40;10;8;
55754;PMS5003;41674;52.290;-1.474;2022-09-20T04:40:13;14;13;
55754;PMS5003;41674;52.290;-1.474;2022-09-20T04:45:16;13;12;
55754;PMS5003;41674;52.290;-1.474;2022-09-20T04:55:11;17;15;
55754;PMS5003;41674;52.290;-1.474;2022-09-20T04:57:50;16;13;
55754;PMS5003;41674;52.290;-1.474;2022-09-20T05:00:05;12;12;
55754;PMS5003;41674;52.290;-1.474;2022-09-20T05:02:41;13;11;
55754;PMS5003;41674;52.290;-1.474;2022-09-20T05:05:12;16;14;
55754;PMS5003;41674;52.290;-1.474;2022-09-20T05:10:09;15;12;
55754;PMS5003;41674;52.290;-1.474;2022-09-20T05:12:34;13;12;
55754;PMS5003;41674;52.290;-1.474;2022-09-20T05:15:05;14;13;
55754;PMS5003;41674;52.290;-1.474;2022-09-20T05:17:35;17;14;
55754;PMS5003;41674;52.290;-1.474;2022-09-20T05:20:06;14;11;
55754;PMS5003;41674;52.290;-1.474;2022-09-20T05:25:10;16;15;
55754;PMS5003;41674;52.290;-1.474;2022-09-20T05:27:32;14;14;
55754;PMS5003;41674;52.290;-1.474;2022-09-20T05:30:01;13;13;
55754;PMS5003;41674;52.290;-1.474;2022-09-20T05:32:29;18;14;
55754;PMS5003;41674;52.290;-1.474;2022-09-20T05:34:59;14;14;
55754;PMS5003;41674;52.290;-1.474;2022-09-20T05:37:30;11;10;
55754;PMS5003;41674;52.290;-1.474;2022-09-20T05:39:58;12;12;
55754;PMS5003;41674;52.290;-1.474;2022-09-20T05:42:31;11;11;
55754;PMS5003;41674;52.290;-1.474;2022-09-20T05:44:58;17;16;
55754;PMS5003;41674;52.290;-1.474;2022-09-20T05:47:30;13;12;
55754;PMS5003;41674;52.290;-1.474;2022-09-20T05:49:57;13;10;
55754;PMS5003;41674;52.290;-1.474;2022-09-20T05:52:28;13;12;
55754;PMS5003;41674;52.290;-1.474;2022-09-20T05:55:02;14;12;
55754;PMS5003;41674;52.290;-1.474;2022-09-20T05:57:28;12;12;
55754;PMS5003;41674;52.290;-1.474;2022-09-20T05:59:56;15;13;
55754;PMS5003;41674;52.290;-1.474;2022-09-20T06:02:31;18;16;
55754;PMS5003;41674;52.290;-1.474;2022-09-20T06:04:54;14;14;
55754;PMS5003;41674;52.290;-1.474;2022-09-20T06:10:04;12;12;
55754;PMS5003;41674;52.290;-1.474;2022-09-20T06:12:28;12;12;
55754;PMS5003;41674;52.290;-1.474;2022-09-20T06:14:51;12;12;
55754;PMS5003;41674;52.290;-1.474;2022-09-20T06:17:22;12;12;
55754;PMS5003;41674;52.290;-1.474;2022-09-20T06:19:51;17;12;
55754;PMS5003;41674;52.290;-1.474;2022-09-20T06:22:20;15;15;
55754;PMS5003;41674;52.290;-1.474;2022-09-20T06:24:50;17;15;
55754;PMS5003;41674;52.290;-1.474;2022-09-20T06:27:18;14;14;
55754;PMS5003;41674;52.290;-1.474;2022-09-20T06:29:49;18;15;
55754;PMS5003;41674;52.290;-1.474;2022-09-20T06:32:16;13;13;
55754;PMS5003;41674;52.290;-1.474;2022-09-20T06:34:46;17;17;
55754;PMS5003;41674;52.290;-1.474;2022-09-20T06:37:19;16;14;
55754;PMS5003;41674;52.290;-1.474;2022-09-20T06:39:46;14;14;
55754;PMS5003;41674;52.290;-1.474;2022-09-20T06:42:14;16;13;
55754;PMS5003;41674;52.290;-1.474;2022-09-20T06:44:43;17;13;
55754;PMS5003;41674;52.290;-1.474;2022-09-20T06:47:13;20;16;
55754;PMS5003;41674;52.290;-1.474;2022-09-20T06:49:42;17;16;
55754;PMS5003;41674;52.290;-1.474;2022-09-20T06:52:11;17;15;
55754;PMS5003;41674;52.290;-1.474;2022-09-20T06:54:41;16;14;
55754;PMS5003;41674;52.290;-1.474;2022-09-20T06:57:11;15;15;
55754;PMS5003;41674;52.290;-1.474;2022-09-20T06:59:39;17;15;
55754;PMS5003;41674;52.290;-1.474;2022-09-20T07:02:08;18;15;
55754;PMS5003;41674;52.290;-1.474;2022-09-20T07:04:38;20;19;
55754;PMS5003;41674;52.290;-1.474;2022-09-20T07:09:36;20;17;
55754;PMS5003;41674;52.290;-1.474;2022-09-20T07:12:06;20;20;
55754;PMS5003;41674;52.290;-1.474;2022-09-20T07:14:35;22;20;
55754;PMS5003;41674;52.290;-1.474;2022-09-20T07:17:05;31;21;
55754;PMS5003;41674;52.290;-1.474;2022-09-20T07:19:34;24;24;
55754;PMS5003;41674;52.290;-1.474;2022-09-20T07:24:33;29;25;
55754;PMS5003;41674;52.290;-1.474;2022-09-20T07:27:03;27;25;
55754;PMS5003;41674;52.290;-1.474;2022-09-20T07:29:32;21;18;
55754;PMS5003;41674;52.290;-1.474;2022-09-20T07:32:02;32;28;
55754;PMS5003;41674;52.290;-1.474;2022-09-20T07:34:31;26;21;
55754;PMS5003;41674;52.290;-1.474;2022-09-20T07:37:01;25;24;
55754;PMS5003;41674;52.290;-1.474;2022-09-20T07:39:30;23;22;
55754;PMS5003;41674;52.290;-1.474;2022-09-20T07:42:00;27;23;
55754;PMS5003;41674;52.290;-1.474;2022-09-20T07:44:29;31;28;
55754;PMS5003;41674;52.290;-1.474;2022-09-20T07:46:58;26;23;
55754;PMS5003;41674;52.290;-1.474;2022-09-20T07:49:27;33;27;
55754;PMS5003;41674;52.290;-1.474;2022-09-20T07:51:57;28;28;
55754;PMS5003;41674;52.290;-1.474;2022-09-20T07:54:27;28;24;
55754;PMS5003;41674;52.290;-1.474;2022-09-20T07:56:56;31;30;
55754;PMS5003;41674;52.290;-1.474;2022-09-20T07:59:25;29;24;
55754;PMS5003;41674;52.290;-1.474;2022-09-20T08:01:54;26;23;
55754;PMS5003;41674;52.290;-1.474;2022-09-20T08:04:24;24;22;
55754;PMS5003;41674;52.290;-1.474;2022-09-20T08:09:23;27;25;
55754;PMS5003;41674;52.290;-1.474;2022-09-20T08:11:52;34;30;
55754;PMS5003;41674;52.290;-1.474;2022-09-20T08:14:21;28;27;
55754;PMS5003;41674;52.290;-1.474;2022-09-20T08:16:51;41;32;
55754;PMS5003;41674;52.290;-1.474;2022-09-20T08:19:20;29;26;
55754;PMS5003;41674;52.290;-1.474;2022-09-20T08:21:50;24;23;
55754;PMS5003;41674;52.290;-1.474;2022-09-20T08:24:18;28;27;
55754;PMS5003;41674;52.290;-1.474;2022-09-20T08:26:48;23;22;
55754;PMS5003;41674;52.290;-1.474;2022-09-20T08:29:17;32;27;
55754;PMS5003;41674;52.290;-1.474;2022-09-20T08:31:46;34;29;
55754;PMS5003;41674;52.290;-1.474;2022-09-20T08:34:15;26;22;
55754;PMS5003;41674;52.290;-1.474;2022-09-20T08:36:45;34;30;
55754;PMS5003;41674;52.290;-1.474;2022-09-20T08:39:14;27;27;
55754;PMS5003;41674;52.290;-1.474;2022-09-20T08:41:45;25;23;
55754;PMS5003;41674;52.290;-1.474;2022-09-20T08:46:44;24;23;
55754;PMS5003;41674;52.290;-1.474;2022-09-20T08:49:14;23;22;
55754;PMS5003;41674;52.290;-1.474;2022-09-20T08:51:42;23;21;
55754;PMS5003;41674;52.290;-1.474;2022-09-20T08:54:11;22;22;
55754;PMS5003;41674;52.290;-1.474;2022-09-20T08:56:41;22;22;
55754;PMS5003;41674;52.290;-1.474;2022-09-20T09:01:40;19;18;
55754;PMS5003;41674;52.290;-1.474;2022-09-20T09:04:11;24;23;
55754;PMS5003;41674;52.290;-1.474;2022-09-20T09:06:39;23;22;
55754;PMS5003;41674;52.290;-1.474;2022-09-20T09:09:11;20;19;
55754;PMS5003;41674;52.290;-1.474;2022-09-20T09:11:39;27;23;
55754;PMS5003;41674;52.290;-1.474;2022-09-20T09:14:10;24;21;
55754;PMS5003;41674;52.290;-1.474;2022-09-20T09:16:37;24;22;
55754;PMS5003;41674;52.290;-1.474;2022-09-20T09:21:36;23;21;
55754;PMS5003;41674;52.290;-1.474;2022-09-20T09:26:36;21;21;
55754;PMS5003;41674;52.290;-1.474;2022-09-20T09:29:14;21;19;
55754;PMS5003;41674;52.290;-1.474;2022-09-20T09:31:34;22;19;
55754;PMS5003;41674;52.290;-1.474;2022-09-20T09:34:04;24;19;
55754;PMS5003;41674;52.290;-1.474;2022-09-20T09:36:35;17;16;
55754;PMS5003;41674;52.290;-1.474;2022-09-20T09:41:32;21;17;
55754;PMS5003;41674;52.290;-1.474;2022-09-20T09:44:03;20;19;
55754;PMS5003;41674;52.290;-1.474;2022-09-20T09:46:31;14;13;
55754;PMS5003;41674;52.290;-1.474;2022-09-20T09:49:05;17;16;
55754;PMS5003;41674;52.290;-1.474;2022-09-20T09:51:30;19;16;
55754;PMS5003;41674;52.290;-1.474;2022-09-20T09:53:59;10;10;
55754;PMS5003;41674;52.290;-1.474;2022-09-20T09:56:37;18;15;
55754;PMS5003;41674;52.290;-1.474;2022-09-20T09:59:03;11;11;
55754;PMS5003;41674;52.290;-1.474;2022-09-20T10:01:30;11;8;
55754;PMS5003;41674;52.290;-1.474;2022-09-20T10:04:00;10;10;
55754;PMS5003;41674;52.290;-1.474;2022-09-20T10:06:28;11;10;
55754;PMS5003;41674;52.290;-1.474;2022-09-20T10:09:00;8;7;
55754;PMS5003;41674;52.290;-1.474;2022-09-20T10:11:29;7;7;
55754;PMS5003;41674;52.290;-1.474;2022-09-20T10:13:58;9;8;
55754;PMS5003;41674;52.290;-1.474;2022-09-20T10:16:27;6;6;
55754;PMS5003;41674;52.290;-1.474;2022-09-20T10:18:57;11;9;
55754;PMS5003;41674;52.290;-1.474;2022-09-20T10:21:30;10;9;
55754;PMS5003;41674;52.290;-1.474;2022-09-20T10:23:57;10;8;
55754;PMS5003;41674;52.290;-1.474;2022-09-20T10:26:32;11;10;
55754;PMS5003;41674;52.290;-1.474;2022-09-20T10:28:56;8;8;
55754;PMS5003;41674;52.290;-1.474;2022-09-20T10:31:29;6;5;
55754;PMS5003;41674;52.290;-1.474;2022-09-20T10:33:55;10;9;
55754;PMS5003;41674;52.290;-1.474;2022-09-20T10:36:22;11;10;
55754;PMS5003;41674;52.290;-1.474;2022-09-20T10:38:53;10;10;
55754;PMS5003;41674;52.290;-1.474;2022-09-20T10:41:25;13;9;
55754;PMS5003;41674;52.290;-1.474;2022-09-20T10:43:57;10;9;
55754;PMS5003;41674;52.290;-1.474;2022-09-20T10:46:20;7;7;
55754;PMS5003;41674;52.290;-1.474;2022-09-20T10:48:50;10;8;
55754;PMS5003;41674;52.290;-1.474;2022-09-20T10:51:21;4;4;
55754;PMS5003;41674;52.290;-1.474;2022-09-20T10:53:48;5;5;
55754;PMS5003;41674;52.290;-1.474;2022-09-20T10:56:21;10;9;
55754;PMS5003;41674;52.290;-1.474;2022-09-20T10:59:03;6;6;
55754;PMS5003;41674;52.290;-1.474;2022-09-20T11:01:18;8;6;
55754;PMS5003;41674;52.290;-1.474;2022-09-20T11:03:51;5;4;
55754;PMS5003;41674;52.290;-1.474;2022-09-20T11:06:17;9;7;
55754;PMS5003;41674;52.290;-1.474;2022-09-20T11:08:45;7;6;
55754;PMS5003;41674;52.290;-1.474;2022-09-20T11:11:16;6;6;
55754;PMS5003;41674;52.290;-1.474;2022-09-20T11:13:45;5;5;
55754;PMS5003;41674;52.290;-1.474;2022-09-20T11:16:15;5;5;
55754;PMS5003;41674;52.290;-1.474;2022-09-20T11:18:45;4;3;
55754;PMS5003;41674;52.290;-1.474;2022-09-20T11:21:14;3;3;
55754;PMS5003;41674;52.290;-1.474;2022-09-20T11:23:44;3;3;
55754;PMS5003;41674;52.290;-1.474;2022-09-20T11:26:13;5;5;
55754;PMS5003;41674;52.290;-1.474;2022-09-20T11:28:42;4;4;
55754;PMS5003;41674;52.290;-1.474;2022-09-20T11:31:13;4;4;
55754;PMS5003;41674;52.290;-1.474;2022-09-20T11:33:41;3;3;
55754;PMS5003;41674;52.290;-1.474;2022-09-20T11:36:12;5;4;
55754;PMS5003;41674;52.290;-1.474;2022-09-20T11:38:40;4;3;
55754;PMS5003;41674;52.290;-1.474;2022-09-20T11:41:10;6;5;
55754;PMS5003;41674;52.290;-1.474;2022-09-20T11:43:38;9;6;
55754;PMS5003;41674;52.290;-1.474;2022-09-20T11:46:08;4;4;
55754;PMS5003;41674;52.290;-1.474;2022-09-20T11:48:37;4;4;
55754;PMS5003;41674;52.290;-1.474;2022-09-20T11:51:13;3;3;
55754;PMS5003;41674;52.290;-1.474;2022-09-20T11:53:42;5;4;
55754;PMS5003;41674;52.290;-1.474;2022-09-20T11:56:06;5;5;
55754;PMS5003;41674;52.290;-1.474;2022-09-20T12:01:04;4;4;
55754;PMS5003;41674;52.290;-1.474;2022-09-20T12:03:35;6;5;
55754;PMS5003;41674;52.290;-1.474;2022-09-20T12:06:04;5;5;
55754;PMS5003;41674;52.290;-1.474;2022-09-20T12:08:34;3;3;
55754;PMS5003;41674;52.290;-1.474;2022-09-20T12:11:03;4;4;
55754;PMS5003;41674;52.290;-1.474;2022-09-20T12:13:33;5;5;
55754;PMS5003;41674;52.290;-1.474;2022-09-20T12:16:03;3;3;
55754;PMS5003;41674;52.290;-1.474;2022-09-20T12:18:35;5;5;
55754;PMS5003;41674;52.290;-1.474;2022-09-20T12:21:02;3;3;
55754;PMS5003;41674;52.290;-1.474;2022-09-20T12:26:00;4;3;
55754;PMS5003;41674;52.290;-1.474;2022-09-20T12:28:32;5;4;
55754;PMS5003;41674;52.290;-1.474;2022-09-20T12:33:28;4;4;
55754;PMS5003;41674;52.290;-1.474;2022-09-20T12:38:29;1;1;
55754;PMS5003;41674;52.290;-1.474;2022-09-20T12:40:57;2;2;
55754;PMS5003;41674;52.290;-1.474;2022-09-20T12:43:26;3;2;
55754;PMS5003;41674;52.290;-1.474;2022-09-20T12:45:55;2;2;
55754;PMS5003;41674;52.290;-1.474;2022-09-20T12:48:25;2;2;
55754;PMS5003;41674;52.290;-1.474;2022-09-20T12:51:00;4;4;
55754;PMS5003;41674;52.290;-1.474;2022-09-20T12:53:24;3;3;
55754;PMS5003;41674;52.290;-1.474;2022-09-20T12:56:03;3;3;
55754;PMS5003;41674;52.290;-1.474;2022-09-20T12:58:24;6;5;
55754;PMS5003;41674;52.290;-1.474;2022-09-20T13:03:24;3;3;
55754;PMS5003;41674;52.290;-1.474;2022-09-20T13:08:21;6;5;
55754;PMS5003;41674;52.290;-1.474;2022-09-20T13:10:52;4;3;
55754;PMS5003;41674;52.290;-1.474;2022-09-20T13:13:24;3;3;
55754;PMS5003;41674;52.290;-1.474;2022-09-20T13:15:50;3;3;
55754;PMS5003;41674;52.290;-1.474;2022-09-20T13:18:19;4;3;
55754;PMS5003;41674;52.290;-1.474;2022-09-20T13:20:48;5;4;
55754;PMS5003;41674;52.290;-1.474;2022-09-20T13:23:19;3;2;
55754;PMS5003;41674;52.290;-1.474;2022-09-20T13:25:47;3;3;
55754;PMS5003;41674;52.290;-1.474;2022-09-20T13:28:23;4;4;
55754;PMS5003;41674;52.290;-1.474;2022-09-20T13:30:46;2;2;
55754;PMS5003;41674;52.290;-1.474;2022-09-20T13:35:46;6;3;
55754;PMS5003;41674;52.290;-1.474;2022-09-20T13:38:16;4;3;
55754;PMS5003;41674;52.290;-1.474;2022-09-20T13:40:45;3;3;
55754;PMS5003;41674;52.290;-1.474;2022-09-20T13:43:18;5;4;
55754;PMS5003;41674;52.290;-1.474;2022-09-20T13:45:50;2;2;
55754;PMS5003;41674;52.290;-1.474;2022-09-20T13:48:13;3;3;
55754;PMS5003;41674;52.290;-1.474;2022-09-20T13:50:43;3;2;
55754;PMS5003;41674;52.290;-1.474;2022-09-20T13:53:13;2;2;
55754;PMS5003;41674;52.290;-1.474;2022-09-20T13:55:42;3;3;
55754;PMS5003;41674;52.290;-1.474;2022-09-20T13:58:16;4;4;
55754;PMS5003;41674;52.290;-1.474;2022-09-20T14:00:43;3;3;
55754;PMS5003;41674;52.290;-1.474;2022-09-20T14:03:11;3;3;
55754;PMS5003;41674;52.290;-1.474;2022-09-20T14:05:43;3;3;
55754;PMS5003;41674;52.290;-1.474;2022-09-20T14:08:11;3;3;
55754;PMS5003;41674;52.290;-1.474;2022-09-20T14:10:39;3;2;
55754;PMS5003;41674;52.290;-1.474;2022-09-20T14:13:13;2;2;
55754;PMS5003;41674;52.290;-1.474;2022-09-20T14:15:39;3;3;
55754;PMS5003;41674;52.290;-1.474;2022-09-20T14:18:08;3;3;
55754;PMS5003;41674;52.290;-1.474;2022-09-20T14:20:36;4;4;
55754;PMS5003;41674;52.290;-1.474;2022-09-20T14:25:35;3;3;
55754;PMS5003;41674;52.290;-1.474;2022-09-20T14:28:06;3;3;
55754;PMS5003;41674;52.290;-1.474;2022-09-20T14:30:35;4;4;
55754;PMS5003;41674;52.290;-1.474;2022-09-20T14:33:04;3;3;
55754;PMS5003;41674;52.290;-1.474;2022-09-20T14:35:33;2;2;
55754;PMS5003;41674;52.290;-1.474;2022-09-20T14:38:06;2;2;
55754;PMS5003;41674;52.290;-1.474;2022-09-20T14:43:03;2;2;
55754;PMS5003;41674;52.290;-1.474;2022-09-20T14:45:32;5;4;
55754;PMS5003;41674;52.290;-1.474;2022-09-20T14:48:01;2;2;
55754;PMS5003;41674;52.290;-1.474;2022-09-20T14:50:31;4;3;
55754;PMS5003;41674;52.290;-1.474;2022-09-20T14:53:01;2;2;
55754;PMS5003;41674;52.290;-1.474;2022-09-20T14:55:30;5;4;
55754;PMS5003;41674;52.290;-1.474;2022-09-20T14:57:59;3;2;
55754;PMS5003;41674;52.290;-1.474;2022-09-20T15:00:28;1;1;
55754;PMS5003;41674;52.290;-1.474;2022-09-20T15:03:02;3;3;
55754;PMS5003;41674;52.290;-1.474;2022-09-20T15:05:27;4;3;
55754;PMS5003;41674;52.290;-1.474;2022-09-20T15:07:57;4;3;
55754;PMS5003;41674;52.290;-1.474;2022-09-20T15:10:26;1;1;
55754;PMS5003;41674;52.290;-1.474;2022-09-20T15:12:56;3;1;
55754;PMS5003;41674;52.290;-1.474;2022-09-20T15:15:25;4;3;
55754;PMS5003;41674;52.290;-1.474;2022-09-20T15:17:55;3;3;
55754;PMS5003;41674;52.290;-1.474;2022-09-20T15:20:29;3;2;
55754;PMS5003;41674;52.290;-1.474;2022-09-20T15:22:54;2;2;
55754;PMS5003;41674;52.290;-1.474;2022-09-20T15:25:23;3;3;
55754;PMS5003;41674;52.290;-1.474;2022-09-20T15:27:53;2;2;
55754;PMS5003;41674;52.290;-1.474;2022-09-20T15:30:22;2;2;
55754;PMS5003;41674;52.290;-1.474;2022-09-20T15:32:52;2;1;
55754;PMS5003;41674;52.290;-1.474;2022-09-20T15:35:21;3;3;
55754;PMS5003;41674;52.290;-1.474;2022-09-20T15:37:51;4;3;
55754;PMS5003;41674;52.290;-1.474;2022-09-20T15:40:20;3;2;
55754;PMS5003;41674;52.290;-1.474;2022-09-20T15:42:53;2;2;
55754;PMS5003;41674;52.290;-1.474;2022-09-20T15:45:19;5;3;
55754;PMS5003;41674;52.290;-1.474;2022-09-20T15:47:49;2;1;
55754;PMS5003;41674;52.290;-1.474;2022-09-20T15:52:48;2;2;
55754;PMS5003;41674;52.290;-1.474;2022-09-20T15:55:17;2;2;
55754;PMS5003;41674;52.290;-1.474;2022-09-20T15:57:47;2;2;
55754;PMS5003;41674;52.290;-1.474;2022-09-20T16:00:16;2;2;
55754;PMS5003;41674;52.290;-1.474;2022-09-20T16:02:47;2;2;
55754;PMS5003;41674;52.290;-1.474;2022-09-20T16:05:15;2;2;
55754;PMS5003;41674;52.290;-1.474;2022-09-20T16:07:45;2;2;
55754;PMS5003;41674;52.290;-1.474;2022-09-20T16:10:14;2;2;
55754;PMS5003;41674;52.290;-1.474;2022-09-20T16:12:44;2;2;
55754;PMS5003;41674;52.290;-1.474;2022-09-20T16:15:13;3;3;
55754;PMS5003;41674;52.290;-1.474;2022-09-20T16:17:43;1;1;
55754;PMS5003;41674;52.290;-1.474;2022-09-20T16:22:42;1;1;
55754;PMS5003;41674;52.290;-1.474;2022-09-20T16:25:11;2;2;
55754;PMS5003;41674;52.290;-1.474;2022-09-20T16:27:41;3;2;
55754;PMS5003;41674;52.290;-1.474;2022-09-20T16:30:11;3;1;
55754;PMS5003;41674;52.290;-1.474;2022-09-20T16:32:40;24;21;
55754;PMS5003;41674;52.290;-1.474;2022-09-20T16:35:09;8;6;
55754;PMS5003;41674;52.290;-1.474;2022-09-20T16:37:38;7;6;
55754;PMS5003;41674;52.290;-1.474;2022-09-20T16:40:08;3;3;
55754;PMS5003;41674;52.290;-1.474;2022-09-20T16:42:38;4;4;
55754;PMS5003;41674;52.290;-1.474;2022-09-20T16:45:07;0;0;
55754;PMS5003;41674;52.290;-1.474;2022-09-20T16:47:37;3;2;
55754;PMS5003;41674;52.290;-1.474;2022-09-20T16:50:06;5;5;
55754;PMS5003;41674;52.290;-1.474;2022-09-20T16:52:36;2;2;
55754;PMS5003;41674;52.290;-1.474;2022-09-20T16:55:06;2;2;
55754;PMS5003;41674;52.290;-1.474;2022-09-20T16:57:35;2;2;
55754;PMS5003;41674;52.290;-1.474;2022-09-20T17:00:05;4;2;
55754;PMS5003;41674;52.290;-1.474;2022-09-20T17:02:34;1;1;
55754;PMS5003;41674;52.290;-1.474;2022-09-20T17:05:03;2;2;
55754;PMS5003;41674;52.290;-1.474;2022-09-20T17:07:33;6;6;
55754;PMS5003;41674;52.290;-1.474;2022-09-20T17:10:02;4;4;
55754;PMS5003;41674;52.290;-1.474;2022-09-20T17:15:06;4;4;
55754;PMS5003;41674;52.290;-1.474;2022-09-20T17:17:31;4;3;
55754;PMS5003;41674;52.290;-1.474;2022-09-20T17:20:00;4;4;
55754;PMS5003;41674;52.290;-1.474;2022-09-20T17:22:30;3;2;
55754;PMS5003;41674;52.290;-1.474;2022-09-20T17:24:59;4;4;
55754;PMS5003;41674;52.290;-1.474;2022-09-20T17:27:30;4;3;
55754;PMS5003;41674;52.290;-1.474;2022-09-20T17:29:58;3;3;
55754;PMS5003;41674;52.290;-1.474;2022-09-20T17:32:28;5;3;
55754;PMS5003;41674;52.290;-1.474;2022-09-20T17:34:57;3;3;
55754;PMS5003;41674;52.290;-1.474;2022-09-20T17:37:27;6;4;
55754;PMS5003;41674;52.290;-1.474;2022-09-20T17:39:56;2;2;
55754;PMS5003;41674;52.290;-1.474;2022-09-20T17:42:26;4;4;
55754;PMS5003;41674;52.290;-1.474;2022-09-20T17:44:56;6;6;
55754;PMS5003;41674;52.290;-1.474;2022-09-20T17:47:25;5;5;